sensor_id;sensor_type;location;lat;lon;timestamp;P1;durP1;ratioP1;P2;durP2;ratioP2
46767;SDS011;69007;48.978;18.066;2023-08-12T00:00:16;7.65;;;3.75;;
46767;SDS011;69007;48.978;18.066;2023-08-12T00:02:42;4.05;;;3.65;;
46767;SDS011;69007;48.978;18.066;2023-08-12T00:05:08;3.80;;;3.40;;
46767;SDS011;69007;48.978;18.066;2023-08-12T00:07:36;4.00;;;3.50;;
46767;SDS011;69007;48.978;18.066;2023-08-12T00:10:02;3.72;;;3.42;;
46767;SDS011;69007;48.978;18.066;2023-08-12T00:12:29;4.18;;;3.75;;
46767;SDS011;69007;48.978;18.066;2023-08-12T00:14:56;3.28;;;2.95;;
46767;SDS011;69007;48.978;18.066;2023-08-12T00:17:21;4.30;;;3.40;;
46767;SDS011;69007;48.978;18.066;2023-08-12T00:19:47;5.00;;;3.90;;
46767;SDS011;69007;48.978;18.066;2023-08-12T00:22:12;5.82;;;3.33;;
46767;SDS011;69007;48.978;18.066;2023-08-12T00:24:38;3.60;;;3.30;;
46767;SDS011;69007;48.978;18.066;2023-08-12T00:27:03;5.60;;;4.20;;
46767;SDS011;69007;48.978;18.066;2023-08-12T00:29:29;6.70;;;3.72;;
46767;SDS011;69007;48.978;18.066;2023-08-12T00:31:54;7.38;;;4.05;;
46767;SDS011;69007;48.978;18.066;2023-08-12T00:34:20;4.47;;;4.05;;
46767;SDS011;69007;48.978;18.066;2023-08-12T00:36:46;9.57;;;4.07;;
46767;SDS011;69007;48.978;18.066;2023-08-12T00:39:11;3.80;;;3.50;;
46767;SDS011;69007;48.978;18.066;2023-08-12T00:41:37;3.80;;;3.38;;
46767;SDS011;69007;48.978;18.066;2023-08-12T00:44:03;8.55;;;4.03;;
46767;SDS011;69007;48.978;18.066;2023-08-12T00:46:28;4.57;;;4.10;;
46767;SDS011;69007;48.978;18.066;2023-08-12T00:48:54;6.65;;;4.38;;
46767;SDS011;69007;48.978;18.066;2023-08-12T00:51:19;7.45;;;4.43;;
46767;SDS011;69007;48.978;18.066;2023-08-12T00:53:45;11.00;;;4.20;;
46767;SDS011;69007;48.978;18.066;2023-08-12T00:56:11;4.78;;;4.13;;
46767;SDS011;69007;48.978;18.066;2023-08-12T00:58:37;12.77;;;6.05;;
46767;SDS011;69007;48.978;18.066;2023-08-12T01:01:04;5.78;;;4.05;;
46767;SDS011;69007;48.978;18.066;2023-08-12T01:03:30;12.57;;;5.88;;
46767;SDS011;69007;48.978;18.066;2023-08-12T01:05:55;7.90;;;4.25;;
46767;SDS011;69007;48.978;18.066;2023-08-12T01:08:21;10.52;;;4.57;;
46767;SDS011;69007;48.978;18.066;2023-08-12T01:10:52;5.55;;;4.50;;
46767;SDS011;69007;48.978;18.066;2023-08-12T01:16:17;11.55;;;4.90;;
46767;SDS011;69007;48.978;18.066;2023-08-12T01:18:43;9.10;;;4.88;;
46767;SDS011;69007;48.978;18.066;2023-08-12T01:21:10;8.73;;;5.13;;
46767;SDS011;69007;48.978;18.066;2023-08-12T01:23:39;14.35;;;4.93;;
46767;SDS011;69007;48.978;18.066;2023-08-12T01:26:04;8.50;;;4.28;;
46767;SDS011;69007;48.978;18.066;2023-08-12T01:28:30;5.47;;;4.43;;
46767;SDS011;69007;48.978;18.066;2023-08-12T01:30:57;8.15;;;4.78;;
46767;SDS011;69007;48.978;18.066;2023-08-12T01:34:07;9.48;;;4.18;;
46767;SDS011;69007;48.978;18.066;2023-08-12T01:36:36;7.25;;;5.07;;
46767;SDS011;69007;48.978;18.066;2023-08-12T01:39:05;9.23;;;4.95;;
46767;SDS011;69007;48.978;18.066;2023-08-12T01:41:33;6.80;;;5.05;;
46767;SDS011;69007;48.978;18.066;2023-08-12T01:44:00;11.07;;;4.55;;
46767;SDS011;69007;48.978;18.066;2023-08-12T01:46:27;8.00;;;4.82;;
46767;SDS011;69007;48.978;18.066;2023-08-12T01:48:52;4.95;;;4.30;;
46767;SDS011;69007;48.978;18.066;2023-08-12T01:51:18;6.28;;;4.50;;
46767;SDS011;69007;48.978;18.066;2023-08-12T01:53:43;6.97;;;4.10;;
46767;SDS011;69007;48.978;18.066;2023-08-12T01:56:09;8.23;;;5.72;;
46767;SDS011;69007;48.978;18.066;2023-08-12T01:58:34;4.93;;;4.28;;
46767;SDS011;69007;48.978;18.066;2023-08-12T02:01:00;8.82;;;4.70;;
46767;SDS011;69007;48.978;18.066;2023-08-12T02:03:25;7.93;;;4.70;;
46767;SDS011;69007;48.978;18.066;2023-08-12T02:05:50;6.60;;;4.65;;
46767;SDS011;69007;48.978;18.066;2023-08-12T02:08:16;18.85;;;5.15;;
46767;SDS011;69007;48.978;18.066;2023-08-12T02:10:41;9.55;;;5.15;;
46767;SDS011;69007;48.978;18.066;2023-08-12T02:13:06;6.35;;;5.70;;
46767;SDS011;69007;48.978;18.066;2023-08-12T02:15:31;10.93;;;4.97;;
46767;SDS011;69007;48.978;18.066;2023-08-12T02:17:57;6.10;;;4.90;;
46767;SDS011;69007;48.978;18.066;2023-08-12T02:20:23;14.68;;;4.80;;
46767;SDS011;69007;48.978;18.066;2023-08-12T02:22:49;9.75;;;5.05;;
46767;SDS011;69007;48.978;18.066;2023-08-12T02:25:14;7.35;;;4.70;;
46767;SDS011;69007;48.978;18.066;2023-08-12T02:27:40;5.28;;;4.78;;
46767;SDS011;69007;48.978;18.066;2023-08-12T02:30:06;5.00;;;4.50;;
46767;SDS011;69007;48.978;18.066;2023-08-12T02:32:32;7.82;;;4.60;;
46767;SDS011;69007;48.978;18.066;2023-08-12T02:34:57;8.55;;;5.18;;
46767;SDS011;69007;48.978;18.066;2023-08-12T02:37:23;12.63;;;5.45;;
46767;SDS011;69007;48.978;18.066;2023-08-12T02:39:48;9.15;;;5.15;;
46767;SDS011;69007;48.978;18.066;2023-08-12T02:42:13;5.40;;;4.68;;
46767;SDS011;69007;48.978;18.066;2023-08-12T02:44:38;8.00;;;5.25;;
46767;SDS011;69007;48.978;18.066;2023-08-12T02:47:04;5.88;;;4.55;;
46767;SDS011;69007;48.978;18.066;2023-08-12T02:49:29;6.95;;;5.25;;
46767;SDS011;69007;48.978;18.066;2023-08-12T02:51:54;6.80;;;5.30;;
46767;SDS011;69007;48.978;18.066;2023-08-12T02:54:20;8.88;;;4.97;;
46767;SDS011;69007;48.978;18.066;2023-08-12T02:56:45;10.32;;;5.05;;
46767;SDS011;69007;48.978;18.066;2023-08-12T02:59:10;5.38;;;4.88;;
46767;SDS011;69007;48.978;18.066;2023-08-12T03:01:36;8.93;;;5.00;;
46767;SDS011;69007;48.978;18.066;2023-08-12T03:04:01;12.90;;;5.57;;
46767;SDS011;69007;48.978;18.066;2023-08-12T03:06:27;6.72;;;5.38;;
46767;SDS011;69007;48.978;18.066;2023-08-12T03:08:52;6.20;;;5.43;;
46767;SDS011;69007;48.978;18.066;2023-08-12T03:11:17;9.23;;;5.30;;
46767;SDS011;69007;48.978;18.066;2023-08-12T03:13:43;8.70;;;4.65;;
46767;SDS011;69007;48.978;18.066;2023-08-12T03:16:13;8.05;;;4.93;;
46767;SDS011;69007;48.978;18.066;2023-08-12T03:18:39;6.35;;;4.90;;
46767;SDS011;69007;48.978;18.066;2023-08-12T03:21:05;5.60;;;5.10;;
46767;SDS011;69007;48.978;18.066;2023-08-12T03:23:31;5.82;;;5.22;;
46767;SDS011;69007;48.978;18.066;2023-08-12T03:25:57;5.65;;;5.07;;
46767;SDS011;69007;48.978;18.066;2023-08-12T03:28:22;5.60;;;5.03;;
46767;SDS011;69007;48.978;18.066;2023-08-12T03:30:51;6.65;;;5.20;;
46767;SDS011;69007;48.978;18.066;2023-08-12T03:33:17;8.85;;;5.50;;
46767;SDS011;69007;48.978;18.066;2023-08-12T03:35:46;6.40;;;4.68;;
46767;SDS011;69007;48.978;18.066;2023-08-12T03:38:12;9.68;;;4.82;;
46767;SDS011;69007;48.978;18.066;2023-08-12T03:40:38;7.60;;;4.78;;
46767;SDS011;69007;48.978;18.066;2023-08-12T03:43:04;7.25;;;5.00;;
46767;SDS011;69007;48.978;18.066;2023-08-12T03:45:30;9.60;;;4.90;;
46767;SDS011;69007;48.978;18.066;2023-08-12T03:47:55;5.70;;;4.50;;
46767;SDS011;69007;48.978;18.066;2023-08-12T03:50:21;6.70;;;4.75;;
46767;SDS011;69007;48.978;18.066;2023-08-12T03:52:46;4.60;;;4.20;;
46767;SDS011;69007;48.978;18.066;2023-08-12T03:55:11;5.30;;;4.80;;
46767;SDS011;69007;48.978;18.066;2023-08-12T03:57:37;7.45;;;4.00;;
46767;SDS011;69007;48.978;18.066;2023-08-12T04:00:03;9.95;;;4.72;;
46767;SDS011;69007;48.978;18.066;2023-08-12T04:02:29;6.82;;;4.47;;
46767;SDS011;69007;48.978;18.066;2023-08-12T04:04:54;4.63;;;4.22;;
46767;SDS011;69007;48.978;18.066;2023-08-12T04:07:20;7.32;;;4.07;;
46767;SDS011;69007;48.978;18.066;2023-08-12T04:09:45;5.57;;;5.00;;
46767;SDS011;69007;48.978;18.066;2023-08-12T04:12:10;4.50;;;3.78;;
46767;SDS011;69007;48.978;18.066;2023-08-12T04:14:36;5.53;;;4.20;;
46767;SDS011;69007;48.978;18.066;2023-08-12T04:17:01;9.57;;;4.20;;
46767;SDS011;69007;48.978;18.066;2023-08-12T04:19:26;8.95;;;4.40;;
46767;SDS011;69007;48.978;18.066;2023-08-12T04:21:52;4.50;;;4.10;;
46767;SDS011;69007;48.978;18.066;2023-08-12T04:24:18;4.68;;;3.75;;
46767;SDS011;69007;48.978;18.066;2023-08-12T04:26:43;4.07;;;3.67;;
46767;SDS011;69007;48.978;18.066;2023-08-12T04:29:08;4.43;;;3.47;;
46767;SDS011;69007;48.978;18.066;2023-08-12T04:31:34;6.10;;;3.92;;
46767;SDS011;69007;48.978;18.066;2023-08-12T04:33:59;11.73;;;4.10;;
46767;SDS011;69007;48.978;18.066;2023-08-12T04:36:25;6.93;;;3.72;;
46767;SDS011;69007;48.978;18.066;2023-08-12T04:38:50;4.10;;;3.45;;
46767;SDS011;69007;48.978;18.066;2023-08-12T04:41:15;4.95;;;3.85;;
46767;SDS011;69007;48.978;18.066;2023-08-12T04:43:41;6.07;;;3.92;;
46767;SDS011;69007;48.978;18.066;2023-08-12T04:46:07;6.63;;;3.97;;
46767;SDS011;69007;48.978;18.066;2023-08-12T04:48:32;4.53;;;4.13;;
46767;SDS011;69007;48.978;18.066;2023-08-12T04:50:57;4.00;;;3.70;;
46767;SDS011;69007;48.978;18.066;2023-08-12T04:53:26;4.05;;;3.53;;
46767;SDS011;69007;48.978;18.066;2023-08-12T04:55:53;4.47;;;4.00;;
46767;SDS011;69007;48.978;18.066;2023-08-12T04:58:20;9.25;;;3.85;;
46767;SDS011;69007;48.978;18.066;2023-08-12T05:00:45;8.75;;;4.00;;
46767;SDS011;69007;48.978;18.066;2023-08-12T05:03:11;6.72;;;3.95;;
46767;SDS011;69007;48.978;18.066;2023-08-12T05:05:36;5.63;;;4.10;;
46767;SDS011;69007;48.978;18.066;2023-08-12T05:08:02;4.13;;;3.55;;
46767;SDS011;69007;48.978;18.066;2023-08-12T05:10:27;8.23;;;3.65;;
46767;SDS011;69007;48.978;18.066;2023-08-12T05:12:52;4.00;;;3.60;;
46767;SDS011;69007;48.978;18.066;2023-08-12T05:15:19;4.28;;;3.45;;
46767;SDS011;69007;48.978;18.066;2023-08-12T05:17:45;3.72;;;3.20;;
46767;SDS011;69007;48.978;18.066;2023-08-12T05:20:10;9.60;;;3.97;;
46767;SDS011;69007;48.978;18.066;2023-08-12T05:22:35;5.03;;;3.20;;
46767;SDS011;69007;48.978;18.066;2023-08-12T05:25:01;8.48;;;3.17;;
46767;SDS011;69007;48.978;18.066;2023-08-12T05:27:26;5.40;;;3.58;;
46767;SDS011;69007;48.978;18.066;2023-08-12T05:29:52;5.35;;;3.65;;
46767;SDS011;69007;48.978;18.066;2023-08-12T05:32:17;9.63;;;3.85;;
46767;SDS011;69007;48.978;18.066;2023-08-12T05:34:42;3.92;;;3.35;;
46767;SDS011;69007;48.978;18.066;2023-08-12T05:37:08;3.85;;;3.38;;
46767;SDS011;69007;48.978;18.066;2023-08-12T05:39:34;5.60;;;3.17;;
46767;SDS011;69007;48.978;18.066;2023-08-12T05:41:59;3.25;;;2.92;;
46767;SDS011;69007;48.978;18.066;2023-08-12T05:44:25;4.78;;;3.00;;
46767;SDS011;69007;48.978;18.066;2023-08-12T05:46:50;6.30;;;3.33;;
46767;SDS011;69007;48.978;18.066;2023-08-12T05:49:15;5.82;;;3.67;;
46767;SDS011;69007;48.978;18.066;2023-08-12T05:51:41;4.22;;;3.83;;
46767;SDS011;69007;48.978;18.066;2023-08-12T05:54:06;7.75;;;3.63;;
46767;SDS011;69007;48.978;18.066;2023-08-12T05:56:32;8.55;;;3.38;;
46767;SDS011;69007;48.978;18.066;2023-08-12T05:58:57;5.75;;;3.10;;
46767;SDS011;69007;48.978;18.066;2023-08-12T06:01:22;5.82;;;3.05;;
46767;SDS011;69007;48.978;18.066;2023-08-12T06:03:48;6.07;;;3.10;;
46767;SDS011;69007;48.978;18.066;2023-08-12T06:06:13;5.47;;;3.13;;
46767;SDS011;69007;48.978;18.066;2023-08-12T06:08:38;7.15;;;3.20;;
46767;SDS011;69007;48.978;18.066;2023-08-12T06:11:04;5.90;;;3.20;;
46767;SDS011;69007;48.978;18.066;2023-08-12T06:13:29;4.85;;;2.72;;
46767;SDS011;69007;48.978;18.066;2023-08-12T06:15:55;5.25;;;2.95;;
46767;SDS011;69007;48.978;18.066;2023-08-12T06:18:20;5.95;;;2.40;;
46767;SDS011;69007;48.978;18.066;2023-08-12T06:20:45;3.80;;;2.72;;
46767;SDS011;69007;48.978;18.066;2023-08-12T06:23:11;4.97;;;2.90;;
46767;SDS011;69007;48.978;18.066;2023-08-12T06:25:36;4.93;;;2.78;;
46767;SDS011;69007;48.978;18.066;2023-08-12T06:28:02;5.38;;;2.80;;
46767;SDS011;69007;48.978;18.066;2023-08-12T06:30:29;4.28;;;2.97;;
46767;SDS011;69007;48.978;18.066;2023-08-12T06:32:55;4.68;;;3.40;;
46767;SDS011;69007;48.978;18.066;2023-08-12T06:35:20;6.15;;;3.25;;
46767;SDS011;69007;48.978;18.066;2023-08-12T06:37:45;7.20;;;3.35;;
46767;SDS011;69007;48.978;18.066;2023-08-12T06:40:11;4.97;;;3.22;;
46767;SDS011;69007;48.978;18.066;2023-08-12T06:42:36;4.28;;;3.17;;
46767;SDS011;69007;48.978;18.066;2023-08-12T06:45:01;4.00;;;3.63;;
46767;SDS011;69007;48.978;18.066;2023-08-12T06:47:29;6.63;;;3.65;;
46767;SDS011;69007;48.978;18.066;2023-08-12T06:49:54;5.82;;;4.07;;
46767;SDS011;69007;48.978;18.066;2023-08-12T06:52:20;3.65;;;3.35;;
46767;SDS011;69007;48.978;18.066;2023-08-12T06:54:45;7.03;;;4.03;;
46767;SDS011;69007;48.978;18.066;2023-08-12T06:57:10;4.03;;;3.50;;
46767;SDS011;69007;48.978;18.066;2023-08-12T06:59:37;7.53;;;3.60;;
46767;SDS011;69007;48.978;18.066;2023-08-12T07:02:05;3.70;;;3.40;;
46767;SDS011;69007;48.978;18.066;2023-08-12T07:04:31;4.15;;;3.72;;
46767;SDS011;69007;48.978;18.066;2023-08-12T07:06:57;6.35;;;3.85;;
46767;SDS011;69007;48.978;18.066;2023-08-12T07:09:22;6.70;;;4.35;;
46767;SDS011;69007;48.978;18.066;2023-08-12T07:11:47;6.50;;;3.88;;
46767;SDS011;69007;48.978;18.066;2023-08-12T07:14:13;10.35;;;4.35;;
46767;SDS011;69007;48.978;18.066;2023-08-12T07:16:38;5.40;;;4.13;;
46767;SDS011;69007;48.978;18.066;2023-08-12T07:19:04;5.97;;;4.05;;
46767;SDS011;69007;48.978;18.066;2023-08-12T07:21:29;21.40;;;5.00;;
46767;SDS011;69007;48.978;18.066;2023-08-12T07:23:54;5.20;;;4.00;;
46767;SDS011;69007;48.978;18.066;2023-08-12T07:26:20;7.47;;;3.67;;
46767;SDS011;69007;48.978;18.066;2023-08-12T07:28:45;4.60;;;4.18;;
46767;SDS011;69007;48.978;18.066;2023-08-12T07:31:10;5.78;;;4.13;;
46767;SDS011;69007;48.978;18.066;2023-08-12T07:33:36;5.97;;;3.92;;
46767;SDS011;69007;48.978;18.066;2023-08-12T07:36:02;7.97;;;4.07;;
46767;SDS011;69007;48.978;18.066;2023-08-12T07:38:27;5.78;;;3.78;;
46767;SDS011;69007;48.978;18.066;2023-08-12T07:40:53;8.38;;;4.15;;
46767;SDS011;69007;48.978;18.066;2023-08-12T07:43:19;7.55;;;4.25;;
46767;SDS011;69007;48.978;18.066;2023-08-12T07:45:44;6.75;;;4.00;;
46767;SDS011;69007;48.978;18.066;2023-08-12T07:48:10;7.55;;;4.03;;
46767;SDS011;69007;48.978;18.066;2023-08-12T07:50:35;8.10;;;3.78;;
46767;SDS011;69007;48.978;18.066;2023-08-12T07:53:00;5.70;;;4.57;;
46767;SDS011;69007;48.978;18.066;2023-08-12T07:55:27;6.10;;;3.92;;
46767;SDS011;69007;48.978;18.066;2023-08-12T07:57:52;4.65;;;4.13;;
46767;SDS011;69007;48.978;18.066;2023-08-12T08:00:18;7.85;;;3.95;;
46767;SDS011;69007;48.978;18.066;2023-08-12T08:02:44;5.43;;;4.20;;
46767;SDS011;69007;48.978;18.066;2023-08-12T08:05:09;3.67;;;3.17;;
46767;SDS011;69007;48.978;18.066;2023-08-12T08:07:35;4.55;;;3.83;;
46767;SDS011;69007;48.978;18.066;2023-08-12T08:10:00;5.70;;;4.20;;
46767;SDS011;69007;48.978;18.066;2023-08-12T08:12:25;5.88;;;4.03;;
46767;SDS011;69007;48.978;18.066;2023-08-12T08:14:50;7.07;;;3.67;;
46767;SDS011;69007;48.978;18.066;2023-08-12T08:17:16;4.20;;;3.80;;
46767;SDS011;69007;48.978;18.066;2023-08-12T08:19:41;5.25;;;3.70;;
46767;SDS011;69007;48.978;18.066;2023-08-12T08:22:06;5.97;;;3.80;;
46767;SDS011;69007;48.978;18.066;2023-08-12T08:24:32;4.15;;;3.60;;
46767;SDS011;69007;48.978;18.066;2023-08-12T08:26:57;4.10;;;3.65;;
46767;SDS011;69007;48.978;18.066;2023-08-12T08:29:23;4.68;;;4.22;;
46767;SDS011;69007;48.978;18.066;2023-08-12T08:31:49;4.47;;;3.70;;
46767;SDS011;69007;48.978;18.066;2023-08-12T08:34:15;4.85;;;3.92;;
46767;SDS011;69007;48.978;18.066;2023-08-12T08:36:40;5.63;;;3.70;;
46767;SDS011;69007;48.978;18.066;2023-08-12T08:39:06;6.68;;;3.67;;
46767;SDS011;69007;48.978;18.066;2023-08-12T08:41:31;4.88;;;4.07;;
46767;SDS011;69007;48.978;18.066;2023-08-12T08:44:00;4.53;;;4.13;;
46767;SDS011;69007;48.978;18.066;2023-08-12T08:46:29;4.20;;;3.80;;
46767;SDS011;69007;48.978;18.066;2023-08-12T08:48:54;3.92;;;3.63;;
46767;SDS011;69007;48.978;18.066;2023-08-12T08:51:23;4.32;;;3.70;;
46767;SDS011;69007;48.978;18.066;2023-08-12T08:53:50;4.22;;;3.50;;
46767;SDS011;69007;48.978;18.066;2023-08-12T08:56:19;9.15;;;3.30;;
46767;SDS011;69007;48.978;18.066;2023-08-12T08:58:46;5.63;;;3.08;;
46767;SDS011;69007;48.978;18.066;2023-08-12T09:01:11;2.70;;;2.50;;
46767;SDS011;69007;48.978;18.066;2023-08-12T09:03:37;4.28;;;3.88;;
46767;SDS011;69007;48.978;18.066;2023-08-12T09:06:03;5.50;;;3.88;;
46767;SDS011;69007;48.978;18.066;2023-08-12T09:08:31;2.92;;;2.67;;
46767;SDS011;69007;48.978;18.066;2023-08-12T09:10:57;4.00;;;2.72;;
46767;SDS011;69007;48.978;18.066;2023-08-12T09:13:24;3.78;;;2.83;;
46767;SDS011;69007;48.978;18.066;2023-08-12T09:15:50;3.10;;;2.80;;
46767;SDS011;69007;48.978;18.066;2023-08-12T09:18:15;4.68;;;2.90;;
46767;SDS011;69007;48.978;18.066;2023-08-12T09:20:42;3.60;;;2.60;;
46767;SDS011;69007;48.978;18.066;2023-08-12T09:23:08;10.90;;;3.08;;
46767;SDS011;69007;48.978;18.066;2023-08-12T09:25:35;3.47;;;2.67;;
46767;SDS011;69007;48.978;18.066;2023-08-12T09:28:10;5.75;;;2.83;;
46767;SDS011;69007;48.978;18.066;2023-08-12T09:30:37;3.15;;;2.70;;
46767;SDS011;69007;48.978;18.066;2023-08-12T09:33:06;6.93;;;2.80;;
46767;SDS011;69007;48.978;18.066;2023-08-12T09:35:37;6.95;;;2.80;;
46767;SDS011;69007;48.978;18.066;2023-08-12T09:38:04;2.80;;;2.42;;
46767;SDS011;69007;48.978;18.066;2023-08-12T09:40:32;3.45;;;2.70;;
46767;SDS011;69007;48.978;18.066;2023-08-12T09:42:59;8.52;;;3.17;;
46767;SDS011;69007;48.978;18.066;2023-08-12T09:45:25;2.78;;;2.35;;
46767;SDS011;69007;48.978;18.066;2023-08-12T09:47:50;3.03;;;2.75;;
46767;SDS011;69007;48.978;18.066;2023-08-12T09:50:16;5.15;;;2.30;;
46767;SDS011;69007;48.978;18.066;2023-08-12T09:52:41;2.30;;;2.05;;
46767;SDS011;69007;48.978;18.066;2023-08-12T09:55:07;2.53;;;2.33;;
46767;SDS011;69007;48.978;18.066;2023-08-12T09:57:33;5.13;;;2.90;;
46767;SDS011;69007;48.978;18.066;2023-08-12T10:00:02;2.22;;;2.03;;
46767;SDS011;69007;48.978;18.066;2023-08-12T10:02:29;2.22;;;2.03;;
46767;SDS011;69007;48.978;18.066;2023-08-12T10:04:55;2.20;;;2.10;;
46767;SDS011;69007;48.978;18.066;2023-08-12T10:07:23;2.55;;;2.35;;
46767;SDS011;69007;48.978;18.066;2023-08-12T10:09:50;2.53;;;1.65;;
46767;SDS011;69007;48.978;18.066;2023-08-12T10:12:15;2.40;;;2.20;;
46767;SDS011;69007;48.978;18.066;2023-08-12T10:14:42;1.85;;;1.75;;
46767;SDS011;69007;48.978;18.066;2023-08-12T10:17:07;2.92;;;1.90;;
46767;SDS011;69007;48.978;18.066;2023-08-12T10:19:35;2.58;;;2.20;;
46767;SDS011;69007;48.978;18.066;2023-08-12T10:22:02;2.35;;;2.17;;
46767;SDS011;69007;48.978;18.066;2023-08-12T10:24:28;3.25;;;2.05;;
46767;SDS011;69007;48.978;18.066;2023-08-12T10:26:54;2.08;;;1.80;;
46767;SDS011;69007;48.978;18.066;2023-08-12T10:29:20;2.78;;;1.98;;
46767;SDS011;69007;48.978;18.066;2023-08-12T10:31:48;2.05;;;1.88;;
46767;SDS011;69007;48.978;18.066;2023-08-12T10:34:17;2.22;;;1.90;;
46767;SDS011;69007;48.978;18.066;2023-08-12T10:36:44;2.30;;;2.10;;
46767;SDS011;69007;48.978;18.066;2023-08-12T10:39:10;2.00;;;1.83;;
46767;SDS011;69007;48.978;18.066;2023-08-12T10:41:36;2.15;;;2.00;;
46767;SDS011;69007;48.978;18.066;2023-08-12T10:44:03;1.88;;;1.77;;
46767;SDS011;69007;48.978;18.066;2023-08-12T10:46:31;1.90;;;1.80;;
46767;SDS011;69007;48.978;18.066;2023-08-12T10:49:04;2.22;;;1.98;;
46767;SDS011;69007;48.978;18.066;2023-08-12T10:52:03;2.13;;;1.92;;
46767;SDS011;69007;48.978;18.066;2023-08-12T10:54:23;3.90;;;1.88;;
46767;SDS011;69007;48.978;18.066;2023-08-12T11:05:07;2.20;;;2.00;;
46767;SDS011;69007;48.978;18.066;2023-08-12T11:10:16;2.38;;;1.88;;
46767;SDS011;69007;48.978;18.066;2023-08-12T11:15:40;2.05;;;1.80;;
46767;SDS011;69007;48.978;18.066;2023-08-12T11:20:30;1.92;;;1.83;;
46767;SDS011;69007;48.978;18.066;2023-08-12T11:22:56;2.60;;;2.00;;
46767;SDS011;69007;48.978;18.066;2023-08-12T11:25:23;2.03;;;1.92;;
46767;SDS011;69007;48.978;18.066;2023-08-12T11:27:49;3.08;;;1.73;;
46767;SDS011;69007;48.978;18.066;2023-08-12T11:30:18;2.42;;;1.90;;
46767;SDS011;69007;48.978;18.066;2023-08-12T11:32:46;4.72;;;2.00;;
46767;SDS011;69007;48.978;18.066;2023-08-12T11:35:13;2.50;;;2.30;;
46767;SDS011;69007;48.978;18.066;2023-08-12T11:37:40;1.90;;;1.80;;
46767;SDS011;69007;48.978;18.066;2023-08-12T11:40:07;5.45;;;2.00;;
46767;SDS011;69007;48.978;18.066;2023-08-12T11:42:36;10.75;;;3.25;;
46767;SDS011;69007;48.978;18.066;2023-08-12T11:45:03;4.13;;;1.90;;
46767;SDS011;69007;48.978;18.066;2023-08-12T11:47:28;5.43;;;1.90;;
46767;SDS011;69007;48.978;18.066;2023-08-12T11:49:54;3.17;;;2.00;;
46767;SDS011;69007;48.978;18.066;2023-08-12T11:52:19;3.00;;;2.05;;
46767;SDS011;69007;48.978;18.066;2023-08-12T11:54:45;4.40;;;1.90;;
46767;SDS011;69007;48.978;18.066;2023-08-12T11:57:11;7.20;;;2.10;;
46767;SDS011;69007;48.978;18.066;2023-08-12T11:59:37;2.92;;;1.80;;
46767;SDS011;69007;48.978;18.066;2023-08-12T12:02:02;2.35;;;1.90;;
46767;SDS011;69007;48.978;18.066;2023-08-12T12:04:30;2.17;;;1.98;;
46767;SDS011;69007;48.978;18.066;2023-08-12T12:06:56;1.98;;;1.83;;
46767;SDS011;69007;48.978;18.066;2023-08-12T12:09:23;2.70;;;1.80;;
46767;SDS011;69007;48.978;18.066;2023-08-12T12:11:55;2.72;;;2.28;;
46767;SDS011;69007;48.978;18.066;2023-08-12T12:14:20;3.60;;;2.00;;
46767;SDS011;69007;48.978;18.066;2023-08-12T12:16:47;2.08;;;1.90;;
46767;SDS011;69007;48.978;18.066;2023-08-12T12:19:20;2.35;;;2.00;;
46767;SDS011;69007;48.978;18.066;2023-08-12T12:21:48;4.75;;;1.80;;
46767;SDS011;69007;48.978;18.066;2023-08-12T12:24:15;4.82;;;2.00;;
46767;SDS011;69007;48.978;18.066;2023-08-12T12:26:41;3.60;;;1.88;;
46767;SDS011;69007;48.978;18.066;2023-08-12T12:29:06;4.72;;;2.20;;
46767;SDS011;69007;48.978;18.066;2023-08-12T12:31:33;2.00;;;1.90;;
46767;SDS011;69007;48.978;18.066;2023-08-12T12:34:04;2.10;;;1.77;;
46767;SDS011;69007;48.978;18.066;2023-08-12T12:36:39;3.30;;;1.98;;
46767;SDS011;69007;48.978;18.066;2023-08-12T12:39:05;2.20;;;1.92;;
46767;SDS011;69007;48.978;18.066;2023-08-12T12:41:32;2.58;;;1.70;;
46767;SDS011;69007;48.978;18.066;2023-08-12T12:44:01;3.67;;;1.88;;
46767;SDS011;69007;48.978;18.066;2023-08-12T12:46:27;2.33;;;2.10;;
46767;SDS011;69007;48.978;18.066;2023-08-12T12:48:52;2.65;;;2.13;;
46767;SDS011;69007;48.978;18.066;2023-08-12T12:51:18;1.73;;;1.63;;
46767;SDS011;69007;48.978;18.066;2023-08-12T12:53:43;5.22;;;2.22;;
46767;SDS011;69007;48.978;18.066;2023-08-12T12:56:08;3.45;;;1.70;;
46767;SDS011;69007;48.978;18.066;2023-08-12T12:58:36;2.55;;;2.35;;
46767;SDS011;69007;48.978;18.066;2023-08-12T13:01:02;2.65;;;2.13;;
46767;SDS011;69007;48.978;18.066;2023-08-12T13:03:32;6.10;;;2.28;;
46767;SDS011;69007;48.978;18.066;2023-08-12T13:05:59;2.08;;;1.95;;
46767;SDS011;69007;48.978;18.066;2023-08-12T13:08:24;3.38;;;1.88;;
46767;SDS011;69007;48.978;18.066;2023-08-12T13:10:50;4.00;;;1.98;;
46767;SDS011;69007;48.978;18.066;2023-08-12T13:13:15;3.38;;;2.05;;
46767;SDS011;69007;48.978;18.066;2023-08-12T13:15:41;6.38;;;2.22;;
46767;SDS011;69007;48.978;18.066;2023-08-12T13:18:07;9.45;;;2.05;;
46767;SDS011;69007;48.978;18.066;2023-08-12T13:20:33;1.98;;;1.83;;
46767;SDS011;69007;48.978;18.066;2023-08-12T13:22:59;2.85;;;1.88;;
46767;SDS011;69007;48.978;18.066;2023-08-12T13:25:24;2.35;;;2.00;;
46767;SDS011;69007;48.978;18.066;2023-08-12T13:27:50;1.90;;;1.80;;
46767;SDS011;69007;48.978;18.066;2023-08-12T13:30:15;2.10;;;1.90;;
46767;SDS011;69007;48.978;18.066;2023-08-12T13:32:40;2.65;;;2.00;;
46767;SDS011;69007;48.978;18.066;2023-08-12T13:35:06;2.85;;;1.90;;
46767;SDS011;69007;48.978;18.066;2023-08-12T13:37:32;3.33;;;2.15;;
46767;SDS011;69007;48.978;18.066;2023-08-12T13:39:58;5.72;;;2.20;;
46767;SDS011;69007;48.978;18.066;2023-08-12T13:42:23;3.97;;;2.33;;
46767;SDS011;69007;48.978;18.066;2023-08-12T13:44:49;2.25;;;2.15;;
46767;SDS011;69007;48.978;18.066;2023-08-12T13:47:14;1.98;;;1.85;;
46767;SDS011;69007;48.978;18.066;2023-08-12T13:49:40;6.43;;;2.30;;
46767;SDS011;69007;48.978;18.066;2023-08-12T13:52:05;2.70;;;2.17;;
46767;SDS011;69007;48.978;18.066;2023-08-12T13:54:31;2.13;;;1.92;;
46767;SDS011;69007;48.978;18.066;2023-08-12T13:56:56;2.25;;;2.05;;
46767;SDS011;69007;48.978;18.066;2023-08-12T13:59:24;3.05;;;2.10;;
46767;SDS011;69007;48.978;18.066;2023-08-12T14:01:49;2.33;;;2.00;;
46767;SDS011;69007;48.978;18.066;2023-08-12T14:04:15;2.45;;;2.03;;
46767;SDS011;69007;48.978;18.066;2023-08-12T14:06:40;2.42;;;2.22;;
46767;SDS011;69007;48.978;18.066;2023-08-12T14:09:05;2.85;;;2.42;;
46767;SDS011;69007;48.978;18.066;2023-08-12T14:11:33;4.43;;;1.95;;
46767;SDS011;69007;48.978;18.066;2023-08-12T14:13:58;2.97;;;2.38;;
46767;SDS011;69007;48.978;18.066;2023-08-12T14:16:24;2.20;;;2.00;;
46767;SDS011;69007;48.978;18.066;2023-08-12T14:18:49;2.25;;;2.10;;
46767;SDS011;69007;48.978;18.066;2023-08-12T14:21:14;2.35;;;2.15;;
46767;SDS011;69007;48.978;18.066;2023-08-12T14:23:40;2.17;;;1.98;;
46767;SDS011;69007;48.978;18.066;2023-08-12T14:26:05;2.65;;;2.05;;
46767;SDS011;69007;48.978;18.066;2023-08-12T14:28:31;2.50;;;2.17;;
46767;SDS011;69007;48.978;18.066;2023-08-12T14:30:56;3.83;;;2.20;;
46767;SDS011;69007;48.978;18.066;2023-08-12T14:33:21;4.35;;;1.77;;
46767;SDS011;69007;48.978;18.066;2023-08-12T14:35:49;2.47;;;1.95;;
46767;SDS011;69007;48.978;18.066;2023-08-12T14:38:16;1.98;;;1.75;;
46767;SDS011;69007;48.978;18.066;2023-08-12T14:40:41;2.17;;;2.00;;
46767;SDS011;69007;48.978;18.066;2023-08-12T14:43:07;2.25;;;1.90;;
46767;SDS011;69007;48.978;18.066;2023-08-12T14:45:32;2.08;;;1.98;;